createdAt,value
2022-10-04T00:00:27.020Z,6.43
2022-10-04T00:03:03.974Z,6.30
2022-10-04T00:05:34.474Z,6.60
2022-10-04T00:08:29.366Z,7.00
2022-10-04T00:11:10.096Z,7.10
2022-10-04T00:13:41.293Z,7.10
2022-10-04T00:16:24.929Z,6.50
2022-10-04T00:19:14.359Z,7.97
2022-10-04T00:22:21.947Z,6.57
2022-10-04T00:25:21.054Z,7.57
2022-10-04T00:28:30.250Z,7.00
2022-10-04T00:31:18.059Z,10.40
2022-10-04T00:33:50.638Z,6.53
2022-10-04T00:36:52.144Z,5.70
2022-10-04T00:39:47.409Z,9.17
2022-10-04T00:42:43.100Z,6.40
2022-10-04T00:45:34.805Z,7.83
2022-10-04T00:48:17.246Z,7.87
2022-10-04T00:50:52.798Z,8.87
2022-10-04T00:53:43.371Z,5.80
2022-10-04T00:56:18.676Z,7.00
2022-10-04T00:59:08.019Z,7.80
2022-10-04T01:01:39.323Z,5.97
2022-10-04T01:04:22.860Z,6.93
2022-10-04T01:07:02.767Z,7.90
2022-10-04T01:09:35.778Z,9.23
2022-10-04T01:12:15.711Z,7.70
2022-10-04T01:14:53.604Z,6.80
2022-10-04T01:17:22.008Z,6.53
2022-10-04T01:19:55.893Z,6.93
2022-10-04T01:22:45.192Z,10.77
2022-10-04T01:25:45.372Z,9.20
2022-10-04T01:28:14.497Z,8.53
2022-10-04T01:30:43.975Z,10.17
2022-10-04T01:33:14.644Z,5.77
2022-10-04T01:35:43.091Z,10.97
2022-10-04T01:38:13.134Z,6.97
2022-10-04T01:40:48.516Z,8.30
2022-10-04T01:43:24.189Z,8.50
2022-10-04T01:45:58.081Z,10.07
2022-10-04T01:48:32.254Z,5.90
2022-10-04T01:51:05.327Z,6.43
2022-10-04T01:53:42.007Z,9.03
2022-10-04T01:56:23.527Z,7.90
2022-10-04T01:58:58.585Z,6.43
2022-10-04T02:01:41.208Z,6.77
2022-10-04T02:04:18.594Z,6.57
2022-10-04T02:06:54.349Z,7.93
2022-10-04T02:09:28.357Z,9.07
2022-10-04T02:12:06.951Z,7.57
2022-10-04T02:14:52.725Z,7.13
2022-10-04T02:17:23.588Z,6.93
2022-10-04T02:19:52.513Z,7.80
2022-10-04T02:22:21.528Z,6.30
2022-10-04T02:24:51.759Z,7.57
2022-10-04T02:27:20.024Z,10.40
2022-10-04T02:29:48.244Z,9.10
2022-10-04T02:32:33.968Z,8.17
2022-10-04T02:35:03.942Z,8.90
2022-10-04T02:37:34.076Z,6.93
2022-10-04T02:40:12.700Z,9.77
2022-10-04T02:42:48.438Z,10.67
2022-10-04T02:45:23.758Z,10.17
2022-10-04T02:47:57.425Z,5.97
2022-10-04T02:50:32.323Z,8.23
2022-10-04T02:53:06.687Z,7.97
2022-10-04T02:55:37.361Z,11.70
2022-10-04T02:58:11.917Z,8.70
2022-10-04T03:00:50.004Z,9.33
2022-10-04T03:03:26.308Z,9.53
2022-10-04T03:06:03.887Z,7.83
2022-10-04T03:08:50.049Z,6.27
2022-10-04T03:11:22.943Z,6.93
2022-10-04T03:13:56.377Z,7.13
2022-10-04T03:16:25.039Z,9.67
2022-10-04T03:18:58.746Z,9.27
2022-10-04T03:21:28.169Z,9.33
2022-10-04T03:23:56.652Z,8.90
2022-10-04T03:26:34.112Z,10.63
2022-10-04T03:29:10.296Z,7.07
2022-10-04T03:31:43.507Z,9.07
2022-10-04T03:34:17.166Z,12.20
2022-10-04T03:36:47.620Z,8.20
2022-10-04T03:39:32.605Z,7.33
2022-10-04T03:42:06.218Z,8.87
2022-10-04T03:44:48.261Z,7.90
2022-10-04T03:47:21.677Z,8.60
2022-10-04T03:49:52.253Z,7.33
2022-10-04T03:52:26.368Z,10.30
2022-10-04T03:54:57.970Z,9.70
2022-10-04T03:57:27.800Z,8.93
2022-10-04T03:59:56.438Z,9.40
2022-10-04T04:02:34.235Z,8.40
2022-10-04T04:05:13.316Z,7.50
2022-10-04T04:07:47.935Z,9.57
2022-10-04T04:10:24.444Z,7.53
2022-10-04T04:12:59.646Z,10.43
2022-10-04T04:15:31.196Z,8.70
2022-10-04T04:18:04.197Z,8.30
2022-10-04T04:20:35.992Z,8.50
2022-10-04T04:23:14.129Z,8.47
2022-10-04T04:25:48.753Z,7.50
2022-10-04T04:28:28.674Z,8.10
2022-10-04T04:31:01.541Z,8.40
2022-10-04T04:33:34.351Z,8.03
2022-10-04T04:36:08.373Z,7.73
2022-10-04T04:38:57.395Z,7.73
2022-10-04T04:41:28.537Z,13.30
2022-10-04T04:43:58.241Z,7.83
2022-10-04T04:46:29.031Z,10.03
2022-10-04T04:49:04.041Z,8.20
2022-10-04T04:51:34.326Z,10.30
2022-10-04T04:54:05.536Z,11.17
2022-10-04T04:56:45.186Z,8.37
2022-10-04T04:59:16.593Z,9.27
2022-10-04T05:01:47.043Z,9.60
2022-10-04T05:04:21.608Z,9.30
2022-10-04T05:07:02.375Z,8.63
2022-10-04T05:09:33.520Z,7.17
2022-10-04T05:12:10.075Z,11.90
2022-10-04T05:14:46.440Z,7.77
2022-10-04T05:17:21.614Z,8.23
2022-10-04T05:20:00.611Z,6.60
2022-10-04T05:22:29.966Z,11.27
2022-10-04T05:25:10.592Z,9.53
2022-10-04T05:27:40.967Z,9.73
2022-10-04T05:30:38.701Z,9.43
2022-10-04T05:33:09.796Z,9.20
2022-10-04T05:35:57.120Z,9.13
2022-10-04T05:38:38.029Z,9.07
2022-10-04T05:41:11.152Z,11.13
2022-10-04T05:43:46.806Z,10.23
2022-10-04T05:46:22.452Z,8.07
2022-10-04T05:48:57.116Z,10.33
2022-10-04T05:51:30.386Z,10.27
2022-10-04T05:54:06.531Z,9.83
2022-10-04T05:57:32.399Z,10.50
2022-10-04T06:00:16.090Z,8.63
2022-10-04T06:03:28.881Z,10.97
2022-10-04T06:06:02.353Z,7.87
2022-10-04T06:08:46.291Z,8.33
2022-10-04T06:11:42.731Z,9.83
2022-10-04T06:14:39.574Z,10.53
2022-10-04T06:17:42.659Z,8.63
2022-10-04T06:20:54.908Z,8.13
2022-10-04T06:23:26.403Z,8.73
2022-10-04T06:26:01.648Z,8.33
2022-10-04T06:28:33.391Z,7.47
2022-10-04T06:31:45.149Z,8.50
2022-10-04T06:34:42.822Z,7.90
2022-10-04T06:37:54.487Z,10.67
2022-10-04T06:41:01.322Z,12.20
2022-10-04T06:44:07.952Z,11.40
2022-10-04T06:46:45.476Z,10.23
2022-10-04T06:49:37.384Z,12.33
2022-10-04T06:52:26.812Z,12.20
2022-10-04T06:55:35.587Z,9.98
2022-10-04T06:58:48.501Z,9.73
2022-10-04T07:01:28.713Z,12.07
2022-10-04T07:04:04.824Z,9.02
2022-10-04T07:06:41.694Z,8.68
2022-10-04T07:09:20.773Z,11.32
2022-10-04T07:11:54.719Z,8.30
2022-10-04T07:14:30.970Z,8.23
2022-10-04T07:17:05.516Z,9.05
2022-10-04T07:19:40.819Z,10.25
2022-10-04T07:22:19.051Z,11.88
2022-10-04T07:25:02.166Z,10.52
2022-10-04T07:27:37.021Z,10.77
2022-10-04T07:30:15.659Z,10.75
2022-10-04T07:32:47.888Z,9.70
2022-10-04T07:35:24.708Z,10.40
2022-10-04T07:38:01.814Z,8.00
2022-10-04T07:40:35.981Z,10.68
2022-10-04T07:43:08.197Z,12.23
2022-10-04T07:45:44.539Z,12.63
2022-10-04T07:48:17.730Z,10.23
2022-10-04T07:50:59.571Z,10.00
2022-10-04T07:53:32.223Z,11.50
2022-10-04T07:56:09.784Z,8.98
2022-10-04T07:58:49.421Z,8.38
2022-10-04T08:01:30.753Z,16.77
2022-10-04T08:04:14.551Z,9.38
2022-10-04T08:06:57.217Z,11.07
2022-10-04T08:09:39.088Z,9.25
2022-10-04T08:12:20.431Z,11.63
2022-10-04T08:14:57.729Z,12.55
2022-10-04T08:17:51.187Z,9.55
2022-10-04T08:20:35.713Z,13.27
2022-10-04T08:23:35.231Z,10.20
2022-10-04T08:26:19.402Z,10.82
2022-10-04T08:29:18.981Z,11.57
2022-10-04T08:32:06.164Z,10.95
2022-10-04T08:34:57.222Z,11.68
2022-10-04T08:37:35.516Z,11.13
2022-10-04T08:40:49.519Z,12.00
2022-10-04T08:43:56.848Z,14.27
2022-10-04T08:47:05.349Z,13.80
2022-10-04T08:49:54.454Z,11.07
2022-10-04T08:53:23.254Z,10.55
2022-10-04T08:56:11.431Z,12.73
2022-10-04T08:59:08.456Z,14.65
2022-10-04T09:02:08.337Z,12.63
2022-10-04T09:04:57.489Z,10.95
2022-10-04T09:07:54.265Z,14.77
2022-10-04T09:10:48.451Z,12.70
2022-10-04T09:13:39.832Z,12.90
2022-10-04T09:16:18.506Z,10.68
2022-10-04T09:19:20.703Z,11.93
2022-10-04T09:22:19.586Z,13.00
2022-10-04T09:25:24.594Z,11.02
2022-10-04T09:28:21.150Z,12.32
2022-10-04T09:31:16.775Z,13.63
2022-10-04T09:34:22.159Z,11.63
2022-10-04T09:37:23.329Z,13.73
2022-10-04T09:40:36.078Z,9.68
2022-10-04T09:43:37.263Z,13.70
2022-10-04T09:46:49.610Z,10.32
2022-10-04T09:50:03.679Z,15.32
2022-10-04T09:52:43.022Z,13.05
2022-10-04T09:55:47.104Z,13.05
2022-10-04T09:59:08.713Z,11.55
2022-10-04T10:01:48.929Z,11.73
2022-10-04T10:04:45.213Z,13.57
2022-10-04T10:07:39.626Z,14.13
2022-10-04T10:10:35.555Z,13.45
2022-10-04T10:13:40.750Z,14.50
2022-10-04T10:16:39.069Z,13.70
2022-10-04T10:19:57.084Z,13.48
2022-10-04T10:22:59.840Z,12.68
2022-10-04T10:25:48.887Z,12.60
2022-10-04T10:28:43.706Z,11.15
2022-10-04T10:31:47.807Z,11.90
2022-10-04T10:34:53.281Z,11.55
2022-10-04T10:37:43.511Z,11.60
2022-10-04T10:40:32.649Z,10.48
2022-10-04T10:43:26.631Z,14.48
2022-10-04T10:46:23.523Z,14.50
2022-10-04T10:49:22.468Z,13.77
2022-10-04T10:52:46.800Z,12.65
2022-10-04T10:56:14.115Z,11.57
2022-10-04T10:59:37.885Z,10.55
2022-10-04T11:02:48.895Z,10.60
2022-10-04T11:06:00.124Z,9.02
2022-10-04T11:09:13.335Z,10.13
2022-10-04T11:12:10.370Z,9.23
2022-10-04T11:14:59.467Z,17.00
2022-10-04T11:18:03.737Z,9.30
2022-10-04T11:21:07.989Z,10.50
2022-10-04T11:24:20.728Z,14.57
2022-10-04T11:27:28.557Z,10.77
2022-10-04T11:30:20.961Z,8.60
2022-10-04T11:33:38.635Z,11.25
2022-10-04T11:36:34.411Z,10.32
2022-10-04T11:39:48.466Z,10.50
2022-10-04T11:42:34.788Z,11.13
2022-10-04T11:45:38.323Z,9.13
2022-10-04T11:48:23.079Z,12.27
2022-10-04T11:51:26.187Z,11.27
2022-10-04T11:54:57.331Z,10.02
2022-10-04T11:57:38.653Z,11.60
2022-10-04T12:00:16.554Z,9.85
2022-10-04T12:03:27.800Z,9.73
2022-10-04T12:06:35.789Z,9.75
2022-10-04T12:09:15.092Z,10.32
2022-10-04T12:12:31.548Z,9.10
2022-10-04T12:15:30.271Z,10.32
2022-10-04T12:18:23.819Z,9.88
2022-10-04T12:21:38.857Z,8.20
2022-10-04T12:24:47.594Z,9.77
2022-10-04T12:27:58.596Z,10.27
2022-10-04T12:30:43.292Z,9.27
2022-10-04T12:33:32.335Z,10.52
2022-10-04T12:36:20.586Z,9.85
2022-10-04T12:39:09.658Z,8.68
2022-10-04T12:41:51.996Z,8.32
2022-10-04T12:44:40.900Z,10.65
2022-10-04T12:47:53.996Z,9.35
2022-10-04T12:50:40.888Z,11.20
2022-10-04T12:53:22.709Z,11.73
2022-10-04T12:56:09.031Z,9.65
2022-10-04T12:59:01.554Z,9.77
2022-10-04T13:01:37.881Z,11.23
2022-10-04T13:04:24.907Z,10.50
2022-10-04T13:07:38.059Z,15.13
2022-10-04T13:10:32.563Z,10.38
2022-10-04T13:13:49.929Z,9.38
2022-10-04T13:19:25.634Z,10.85
2022-10-04T13:22:44.049Z,11.07
2022-10-04T13:25:46.484Z,8.98
2022-10-04T13:28:24.751Z,9.00
2022-10-04T13:31:02.112Z,10.93
2022-10-04T13:33:41.559Z,10.00
2022-10-04T13:36:20.514Z,11.25
2022-10-04T13:39:37.516Z,7.97
2022-10-04T13:42:32.989Z,9.45
2022-10-04T13:45:29.132Z,13.48
2022-10-04T13:48:28.304Z,8.98
2022-10-04T13:51:19.136Z,11.65
2022-10-04T13:54:17.720Z,9.13
2022-10-04T13:56:59.644Z,10.43
2022-10-04T13:59:44.381Z,12.48
2022-10-04T14:02:55.513Z,9.05
2022-10-04T14:06:21.933Z,10.27
2022-10-04T14:09:29.294Z,9.98
2022-10-04T14:12:32.458Z,9.25
2022-10-04T14:15:53.732Z,10.23
2022-10-04T14:19:09.671Z,8.00
2022-10-04T14:22:31.940Z,9.30
2022-10-04T14:25:51.659Z,7.57
2022-10-04T14:29:08.418Z,8.73
2022-10-04T14:32:10.011Z,7.90
2022-10-04T14:35:04.964Z,9.95
2022-10-04T14:38:14.225Z,8.30
2022-10-04T14:41:12.285Z,10.10
2022-10-04T14:44:50.903Z,8.77
2022-10-04T14:47:42.673Z,8.02
2022-10-04T14:50:28.275Z,9.00
2022-10-04T14:53:16.136Z,8.82
2022-10-04T14:56:06.564Z,9.63
2022-10-04T14:58:51.163Z,10.43
2022-10-04T15:01:23.728Z,11.60
2022-10-04T15:04:11.633Z,7.90
2022-10-04T15:06:48.711Z,8.05
2022-10-04T15:09:52.668Z,8.82
2022-10-04T15:13:12.788Z,8.13
2022-10-04T15:16:13.986Z,9.75
2022-10-04T15:19:05.226Z,9.40
2022-10-04T15:21:59.397Z,8.15
2022-10-04T15:24:51.604Z,8.00
2022-10-04T15:27:51.672Z,7.22
2022-10-04T15:30:39.283Z,7.65
2022-10-04T15:33:31.182Z,9.02
2022-10-04T15:36:32.149Z,6.57
2022-10-04T15:39:47.944Z,8.10
2022-10-04T15:42:25.156Z,7.97
2022-10-04T15:45:46.136Z,8.27
2022-10-04T15:48:34.425Z,8.10
2022-10-04T15:51:15.785Z,9.40
2022-10-04T15:54:06.025Z,8.65
2022-10-04T15:56:48.508Z,7.45
2022-10-04T15:59:47.469Z,7.05
2022-10-04T16:02:48.695Z,9.25
2022-10-04T16:05:26.845Z,8.98
2022-10-04T16:08:51.543Z,7.05
2022-10-04T16:11:53.738Z,9.82
2022-10-04T16:15:02.923Z,7.63
2022-10-04T16:17:58.677Z,9.65
2022-10-04T16:20:55.253Z,8.35
2022-10-04T16:23:34.234Z,7.30
2022-10-04T16:26:06.305Z,7.80
2022-10-04T16:29:01.922Z,7.93
2022-10-04T16:31:48.478Z,9.52
2022-10-04T16:34:52.691Z,7.93
2022-10-04T16:37:34.573Z,8.05
2022-10-04T16:40:20.822Z,6.43
2022-10-04T16:42:56.340Z,7.18
2022-10-04T16:45:51.554Z,10.00
2022-10-04T16:48:40.532Z,6.57
2022-10-04T16:51:46.964Z,10.52
2022-10-04T16:55:02.957Z,9.50
2022-10-04T16:57:33.134Z,16.08
2022-10-04T17:00:35.115Z,10.93
2022-10-04T17:03:18.926Z,7.68
2022-10-04T17:06:14.179Z,8.68
2022-10-04T17:08:53.837Z,7.38
2022-10-04T17:11:45.570Z,8.45
2022-10-04T17:15:07.983Z,7.90
2022-10-04T17:17:50.907Z,7.97
2022-10-04T17:20:29.618Z,8.18
2022-10-04T17:23:27.808Z,7.45
2022-10-04T17:26:07.136Z,7.60
2022-10-04T17:28:52.017Z,8.40
2022-10-04T17:31:31.155Z,8.73
2022-10-04T17:34:13.095Z,11.50
2022-10-04T17:36:54.846Z,6.47
2022-10-04T17:39:44.449Z,9.68
2022-10-04T17:42:30.738Z,7.25
2022-10-04T17:45:32.069Z,6.95
2022-10-04T17:48:29.250Z,10.88
2022-10-04T17:51:21.360Z,6.88
2022-10-04T17:54:16.011Z,7.32
2022-10-04T17:56:50.400Z,7.53
2022-10-04T17:59:47.372Z,8.38
2022-10-04T18:02:24.137Z,8.75
2022-10-04T18:04:58.013Z,9.65
2022-10-04T18:07:29.966Z,7.88
2022-10-04T18:10:26.222Z,7.10
2022-10-04T18:13:01.940Z,7.20
2022-10-04T18:15:37.616Z,15.18
2022-10-04T18:18:18.903Z,11.48
2022-10-04T18:21:07.301Z,7.70
2022-10-04T18:24:02.154Z,8.88
2022-10-04T18:26:34.523Z,8.65
2022-10-04T18:29:03.928Z,8.10
2022-10-04T18:31:37.351Z,8.82
2022-10-04T18:34:28.364Z,6.85
2022-10-04T18:37:07.042Z,10.05
2022-10-04T18:39:50.632Z,6.50
2022-10-04T18:42:30.200Z,8.57
2022-10-04T18:45:01.318Z,10.27
2022-10-04T18:47:38.127Z,7.15
2022-10-04T18:50:19.332Z,7.35
2022-10-04T18:53:02.311Z,9.90
2022-10-04T18:55:39.996Z,9.90
2022-10-04T18:58:43.565Z,7.97
2022-10-04T19:01:50.436Z,8.30
2022-10-04T19:04:35.452Z,7.35
2022-10-04T19:07:11.963Z,8.23
2022-10-04T19:10:15.384Z,7.40
2022-10-04T19:13:05.558Z,14.60
2022-10-04T19:15:52.888Z,7.40
2022-10-04T19:18:44.323Z,8.68
2022-10-04T19:21:23.631Z,7.97
2022-10-04T19:24:29.539Z,8.77
2022-10-04T19:27:04.550Z,12.52
2022-10-04T19:29:51.248Z,9.80
2022-10-04T19:32:37.356Z,12.10
2022-10-04T19:35:21.218Z,9.50
2022-10-04T19:38:01.461Z,8.75
2022-10-04T19:40:44.550Z,9.73
2022-10-04T19:43:18.270Z,11.68
2022-10-04T19:46:02.888Z,9.30
2022-10-04T19:48:41.841Z,7.47
2022-10-04T19:51:19.124Z,8.50
2022-10-04T19:53:53.945Z,7.97
2022-10-04T19:56:29.368Z,9.32
2022-10-04T19:59:09.414Z,11.73
2022-10-04T20:01:40.730Z,8.52
2022-10-04T20:04:35.390Z,7.93
2022-10-04T20:07:11.732Z,8.27
2022-10-04T20:10:07.669Z,9.43
2022-10-04T20:12:40.542Z,9.10
2022-10-04T20:15:49.440Z,9.77
2022-10-04T20:19:00.597Z,10.65
2022-10-04T20:21:32.728Z,11.77
2022-10-04T20:24:03.261Z,8.45
2022-10-04T20:26:59.306Z,9.87
2022-10-04T20:30:04.179Z,11.18
2022-10-04T20:32:56.014Z,9.38
2022-10-04T20:36:08.913Z,9.73
2022-10-04T20:38:59.400Z,9.87
2022-10-04T20:42:22.485Z,11.67
2022-10-04T20:44:59.457Z,13.13
2022-10-04T20:47:44.175Z,12.33
2022-10-04T20:50:33.259Z,14.05
2022-10-04T20:53:14.187Z,10.60
2022-10-04T20:55:46.154Z,9.95
2022-10-04T20:58:32.870Z,14.00
2022-10-04T21:01:36.666Z,9.07
2022-10-04T21:04:15.256Z,9.33
2022-10-04T21:06:54.692Z,10.83
2022-10-04T21:09:23.349Z,15.27
2022-10-04T21:11:55.198Z,10.10
2022-10-04T21:14:25.140Z,23.83
2022-10-04T21:16:59.947Z,36.70
2022-10-04T21:19:51.983Z,36.30
2022-10-04T21:22:40.551Z,27.53
2022-10-04T21:25:38.677Z,25.53
2022-10-04T21:28:41.943Z,15.23
2022-10-04T21:31:10.570Z,12.67
2022-10-04T21:33:39.381Z,10.43
2022-10-04T21:36:08.441Z,11.40
2022-10-04T21:38:36.905Z,11.07
2022-10-04T21:41:07.727Z,12.03
2022-10-04T21:43:36.316Z,10.68
2022-10-04T21:46:06.379Z,9.73
2022-10-04T21:48:35.423Z,10.07
2022-10-04T21:51:04.041Z,19.45
2022-10-04T21:53:40.272Z,18.05
2022-10-04T21:56:08.683Z,14.13
2022-10-04T21:58:37.151Z,13.73
2022-10-04T22:01:07.469Z,19.98
2022-10-04T22:03:36.848Z,13.35
2022-10-04T22:06:11.139Z,10.98
2022-10-04T22:08:43.024Z,13.13
2022-10-04T22:11:12.066Z,11.15
2022-10-04T22:13:40.683Z,9.15
2022-10-04T22:16:17.826Z,11.00
2022-10-04T22:18:46.208Z,18.05
2022-10-04T22:21:14.547Z,20.05
2022-10-04T22:23:45.074Z,22.75
2022-10-04T22:26:18.541Z,14.27
2022-10-04T22:28:49.387Z,23.05
2022-10-04T22:31:21.675Z,25.92
2022-10-04T22:33:52.321Z,24.23
2022-10-04T22:36:23.024Z,21.55
2022-10-04T22:38:57.899Z,19.45
2022-10-04T22:41:30.562Z,26.50
2022-10-04T22:44:05.990Z,31.45
2022-10-04T22:46:49.192Z,13.77
2022-10-04T22:49:22.794Z,18.70
2022-10-04T22:51:53.783Z,38.85
2022-10-04T22:54:26.664Z,67.10
2022-10-04T22:56:57.861Z,30.15
2022-10-04T22:59:35.791Z,51.53
2022-10-04T23:02:13.789Z,26.25
2022-10-04T23:04:46.379Z,33.95
2022-10-04T23:07:14.857Z,35.13
2022-10-04T23:09:50.180Z,31.92
2022-10-04T23:12:18.532Z,34.08
2022-10-04T23:14:47.035Z,31.63
2022-10-04T23:17:25.025Z,41.83
2022-10-04T23:19:56.323Z,36.97
2022-10-04T23:22:36.871Z,39.22
2022-10-04T23:25:16.299Z,66.82
2022-10-04T23:27:51.248Z,23.42
2022-10-04T23:30:22.637Z,37.80
2022-10-04T23:32:59.517Z,26.60
2022-10-04T23:35:32.962Z,29.73
2022-10-04T23:38:07.154Z,30.98
2022-10-04T23:40:35.533Z,30.63
2022-10-04T23:43:06.587Z,53.45
2022-10-04T23:45:41.681Z,28.40
2022-10-04T23:48:14.515Z,42.95
2022-10-04T23:50:43.102Z,36.47
2022-10-04T23:53:20.900Z,43.25
2022-10-04T23:55:49.268Z,29.90
2022-10-04T23:58:31.541Z,28.17
